• Join FlightAware (Why Join?)
  • Login
  • US Flag 
08:17PM EDT


 

Airport Tracker/Info


-or-


 

Live Flight TrackerFlight Track Log ✈ SWA419 ✈ 25-Apr-2014 ✈ KLAS - KSEA

Flight Track Log - Related Links

Times and Time Zones

All times are in EDT time to prevent confusion due to time zone crossing. See the SWA419 flight status page for this flight to view local times or setup timezone preferences in your user account.

Time Position Orientation Groundspeed Altitude Reporting Facility
EDT Latitude Longitude Course Direction KTS MPH feet Rate Location/Type
01:47PM 36.0761 -115.1683 269° West 159 183 3,300  Level Los Angeles Center
01:48PM 36.0756 -115.2056 269° West 180 207 4,200 1,980 Climbing Los Angeles Center
01:49PM 36.0694 -115.2458 259° West 196 226 5,800 2,100 Climbing Los Angeles Center
01:49PM 36.0556 -115.2628 225° Southwest 222 255 6,100 1,140 Climbing Los Angeles Center
01:50PM 36.0119 -115.2822 200° South 245 282 7,000 840 Climbing Los Angeles Center
01:50PM 35.9911 -115.2944 205° Southwest 268 308 7,000 1,920 Level Los Angeles Center
01:51PM 35.9475 -115.3306 214° Southwest 255 293 9,000 2,820 Climbing Los Angeles Center
01:51PM 35.9356 -115.3472 228° Southwest 254 292 9,900 1,920 Climbing Los Angeles Center
01:52PM 35.9167 -115.4069 249° West 271 312 11,000 600 Climbing Los Angeles Center
01:53PM 35.9128 -115.5042 267° West 266 306 11,000 480 Level Los Angeles Center
01:54PM 35.9094 -115.5989 268° West 279 321 12,100 2,160 Climbing Los Angeles Center
01:55PM 35.9044 -115.7186 267° West 323 372 15,600 3,240 Climbing Los Angeles Center
01:56PM 35.9094 -115.8356 273° West 343 395 18,900 3,060 Climbing Los Angeles Center
01:57PM 35.9853 -115.9428 311° West 387 445 22,000 2,520 Climbing Los Angeles Center
01:58PM 36.0486 -116.0308 312° West 390 449 24,200 2,040 Climbing Los Angeles Center
01:59PM 36.1406 -116.1572 312° West 408 470 26,300 1,800 Climbing Los Angeles Center
02:00PM 36.2086 -116.2486 313° West 424 488 28,000 1,740 Climbing Los Angeles Center
02:01PM 36.3033 -116.3808 312° West 429 494 29,900 1,920 Climbing Los Angeles Center
02:02PM 36.3833 -116.4914 312° West 431 496 32,000 1,740 Climbing Los Angeles Center
02:03PM 36.4608 -116.5997 312° West 427 491 33,500 1,500 Climbing Los Angeles Center
02:04PM 36.5378 -116.7089 311° West 427 491 35,100 1,500 Climbing Los Angeles Center
02:05PM 36.6633 -116.8058 328° Northwest 448 516 36,700 1,140 Climbing Los Angeles Center
02:06PM 36.7833 -116.8708 337° Northwest 464 534 37,500 600 Climbing Los Angeles Center
02:07PM 36.9028 -116.9411 335° Northwest 468 539 38,000 240 Climbing Los Angeles Center
02:08PM 37.0214 -117.0075 336° Northwest 468 539 38,000  Level Los Angeles Center
02:10PM 37.2350 -117.1200 337° Northwest 465 535 38,000  Level Oakland Center
02:11PM 37.3356 -117.2075 325° Northwest 438 504 38,000  Level Oakland Center
02:12PM 37.4331 -117.3025 322° Northwest 438 504 38,000  Level Oakland Center
02:13PM 37.5303 -117.3972 322° Northwest 440 506 38,000  Level Oakland Center
02:14PM 37.6264 -117.4922 322° Northwest 439 505 38,000  Level Oakland Center
02:15PM 37.7219 -117.5858 322° Northwest 435 501 38,000  Level Oakland Center
02:16PM 37.8219 -117.6825 323° Northwest 445 512 38,000  Level Oakland Center
02:17PM 37.9194 -117.7808 322° Northwest 445 512 38,000  Level Oakland Center
02:18PM 38.0167 -117.8764 322° Northwest 444 511 38,000  Level Oakland Center
02:19PM 38.1147 -117.9742 322° Northwest 444 511 38,000  Level Oakland Center
02:20PM 38.2111 -118.0717 322° Northwest 443 510 38,000  Level Oakland Center
02:21PM 38.3278 -118.1889 322° Northwest 440 506 38,000  Level Oakland Center
02:22PM 38.4233 -118.2875 321° Northwest 440 506 38,000  Level Oakland Center
02:23PM 38.5189 -118.3856 321° Northwest 440 506 38,000  Level Oakland Center
02:24PM 38.6156 -118.4844 321° Northwest 442 509 38,000  Level Oakland Center
02:25PM 38.7125 -118.5814 322° Northwest 442 509 38,000  Level Oakland Center
02:26PM 38.8089 -118.6808 321° Northwest 442 509 38,000  Level Oakland Center
02:27PM 38.9056 -118.7806 321° Northwest 443 510 38,000  Level Oakland Center
02:28PM 39.0022 -118.8808 321° Northwest 443 510 38,000  Level Oakland Center
02:29PM 39.0989 -118.9808 321° Northwest 443 510 38,000  Level Oakland Center
02:30PM 39.1950 -119.0806 321° Northwest 442 509 38,000  Level Oakland Center
02:31PM 39.3111 -119.1492 335° Northwest 455 524 38,000  Level Oakland Center
02:32PM 39.4314 -119.2081 339° North 455 524 38,000  Level Oakland Center
02:34PM 39.5756 -119.2786 339° North 457 526 38,000  Level Oakland Center
02:35PM 39.6969 -119.3367 340° North 459 528 38,000  Level Oakland Center
02:36PM 39.8161 -119.3953 339° North 459 528 38,000  Level Oakland Center
02:37PM 39.9364 -119.4531 340° North 459 528 38,000  Level Oakland Center
02:38PM 40.0567 -119.5128 339° North 459 528 38,000  Level Oakland Center
02:39PM 40.1761 -119.5717 339° North 460 529 38,000  Level Oakland Center
02:40PM 40.2961 -119.6311 339° North 459 528 38,000  Level Oakland Center
02:41PM 40.4139 -119.6914 339° North 459 528 38,000  Level Oakland Center
02:42PM 40.5336 -119.7492 340° North 459 528 38,000  Level Oakland Center
02:43PM 40.6564 -119.8103 339° North 459 528 38,000  Level Oakland Center
02:44PM 40.7750 -119.8694 339° North 458 527 38,000  Level Oakland Center
02:45PM 40.8714 -119.9219 338° Northwest 455 524 38,000  Level Seattle Center
02:46PM 40.9914 -119.9783 340° North 456 525 38,000  Level Seattle Center
02:47PM 41.1097 -120.0397 339° North 456 525 38,000  Level Seattle Center
02:48PM 41.2281 -120.0989 339° North 456 525 38,000  Level Seattle Center
02:49PM 41.3689 -120.1739 338° Northwest 456 525 38,000  Level Seattle Center
02:50PM 41.4869 -120.2333 339° North 456 525 38,000  Level Seattle Center
02:51PM 41.6061 -120.2931 339° North 457 526 38,000  Level Seattle Center
02:52PM 41.7242 -120.3542 339° North 460 529 38,000  Level Seattle Center
02:53PM 41.8428 -120.4172 338° Northwest 459 528 38,000  Level Seattle Center
02:54PM 41.9608 -120.4792 339° North 460 529 38,000  Level Seattle Center
02:55PM 42.0833 -120.5411 339° North 465 535 38,000  Level Seattle Center
02:56PM 42.2017 -120.6039 339° North 464 534 38,000  Level Seattle Center
02:57PM 42.3211 -120.6678 338° Northwest 463 533 38,000  Level Seattle Center
02:58PM 42.4633 -120.7414 339° North 461 531 38,000  Level Seattle Center
02:59PM 42.5811 -120.8053 338° Northwest 460 529 38,000  Level Seattle Center
03:00PM 42.6981 -120.8661 339° North 454 522 38,000  Level Seattle Center
03:01PM 42.8133 -120.9308 338° Northwest 454 522 38,000  Level Seattle Center
03:02PM 42.9292 -120.9919 339° North 452 520 38,000  Level Seattle Center
03:03PM 43.0467 -121.0542 339° North 453 521 38,000  Level Seattle Center
03:04PM 43.1622 -121.1161 339° North 451 519 38,000  Level Seattle Center
03:05PM 43.2775 -121.1814 338° Northwest 451 519 38,000  Level Seattle Center
03:06PM 43.4181 -121.2539 339° North 451 519 38,000  Level Seattle Center
03:07PM 43.5339 -121.3183 338° Northwest 451 519 38,000  Level Seattle Center
03:08PM 43.6500 -121.3847 338° Northwest 451 519 38,000  Level Seattle Center
03:09PM 43.7669 -121.4489 338° Northwest 452 520 38,000  Level Seattle Center
03:10PM 43.8800 -121.5128 338° Northwest 460 529 38,000  Level Seattle Center
03:11PM 44.0000 -121.5803 338° Northwest 464 534 38,000  Level Seattle Center
03:12PM 44.1186 -121.6456 338° Northwest 463 533 38,000  Level Seattle Center
03:13PM 44.2353 -121.7106 338° Northwest 454 522 38,000  Level Seattle Center
03:14PM 44.3556 -121.7794 338° Northwest 455 524 38,000  Level Seattle Center
03:15PM 44.4953 -121.8586 338° Northwest 453 521 38,000  Level Seattle Center
03:16PM 44.6008 -121.9194 338° Northwest 454 522 38,000  Level Seattle Center
03:17PM 44.7272 -121.9947 337° Northwest 447 514 38,000  Level Seattle Center
03:18PM 44.8436 -122.0603 338° Northwest 449 517 38,000  Level Seattle Center
03:19PM 44.9536 -122.1258 337° Northwest 447 514 38,000  Level Seattle Center
03:20PM 45.0681 -122.1922 338° Northwest 447 514 38,000  Level Seattle Center
03:21PM 45.1842 -122.2592 338° Northwest 450 518 38,000 -300 Level Seattle Center
03:22PM 45.2931 -122.3464 331° Northwest 458 527 37,500 -780 Descending Seattle Center
03:23PM 45.3500 -122.4961 298° West 455 524 36,500 -960 Descending Seattle Center
03:24PM 45.3956 -122.6561 292° West 456 525 35,600 -1,080 Descending Seattle Center
03:25PM 45.5317 -122.6994 347° North 450 518 34,400 -840 Descending Seattle Center
03:26PM 45.6481 -122.6425 19° North 445 512 34,000 -240 Descending Seattle Center
03:27PM 45.7653 -122.5983 15° North 442 509 34,000  Level Seattle Center
03:28PM 45.8833 -122.6233 352° North 434 499 34,000 -120 Level Seattle Center
03:29PM 46.0022 -122.6542 350° North 434 499 33,800 -1,440 Descending Seattle Center
03:30PM 46.1211 -122.6822 351° North 434 499 31,100 -2,400 Descending Seattle Center
03:31PM 46.2392 -122.7067 352° North 437 503 29,000 -2,100 Descending Seattle Center
03:32PM 46.3558 -122.7261 353° North 427 491 26,800 -2,400 Descending Seattle Center
03:33PM 46.4936 -122.7294 359° North 412 474 24,200 -2,340 Descending Seattle Center
03:34PM 46.6042 -122.7328 359° North 400 460 22,100 -2,100 Descending Seattle Center
03:35PM 46.6814 -122.7358 358° North 381 438 20,600 -1,920 Descending Seattle Center
03:35PM 46.7094 -122.7369 358° North 379 436 20,200 -1,380 Descending Seattle Center
03:36PM 46.7347 -122.7364 North 361 415 19,900 -1,800 Descending Seattle Center
03:37PM 46.8008 -122.7261 North 339 390 18,400 -2,100 Descending Seattle Center
03:37PM 46.8200 -122.6969 46° Northeast 325 374 17,800 -1,920 Descending Seattle Center
03:38PM 46.8742 -122.6336 39° Northeast 336 387 16,500 -1,680 Descending Seattle Center
03:38PM 46.8908 -122.6169 34° Northeast 323 372 16,100 -1,620 Descending Seattle Center
03:39PM 46.9461 -122.5578 36° Northeast 320 368 14,900 -1,500 Descending Seattle Center
03:39PM 46.9672 -122.5497 15° North 319 367 14,600 -1,500 Descending Seattle Center
03:40PM 47.0358 -122.5183 17° North 309 356 13,400 -1,440 Descending Seattle Center
03:41PM 47.1172 -122.4917 13° North 299 344 12,000 -1,440 Descending Seattle Center
03:42PM 47.1981 -122.4781 North 292 336 10,500 -1,320 Descending Seattle Center
03:43PM 47.2758 -122.4669 North 277 319 9,400 -1,140 Descending Seattle Center
03:44PM 47.3569 -122.4536 North 272 313 8,200 -1,200 Descending Seattle Center
03:45PM 47.4275 -122.4547 359° North 257 296 7,000 -1,020 Descending Seattle Center
03:46PM 47.4969 -122.4544 360° North 249 287 6,200 -840 Descending Seattle Center
03:47PM 47.5606 -122.4550 360° North 231 266 5,300 -660 Descending Seattle Center
03:48PM 47.6283 -122.4500 North 227 261 4,900 -660 Descending Seattle Center
03:49PM 47.6300 -122.3722 88° East 222 255 4,000 -1,080 Descending Seattle Center
03:50PM 47.5739 -122.3225 149° Southeast 213 245 2,800 -1,140 Descending Seattle Center
03:51PM 47.5231 -122.3175 176° South 182 209 1,700 -1,020 Descending Seattle Center
03:52PM 47.4842 -122.3194 182° South 134 154 900 -660 Descending Seattle Center
03:53PM 47.4481 -122.3189 179° South 143 165 400 -480 Descending Seattle Center
03:55PM 47.4499 -122.3118 132° Southeast  Level Estimated